| time (UTC) | temp F | wind direction | speed knots | gust knots | rain 1hr in | rain 24hr in | rain mn in | humidity % | barometer mb |
| 20260505074503 | 51 | 350 | 0.0 | 1.7 | 0.14 | 0.23 | 0.23 | 81 | 1011.1 |
| 20260505074453 | 51 | 350 | 0.0 | 1.7 | 0.14 | 0.23 | 0.22 | 81 | 1011.1 |
| 20260505074003 | 52 | 327 | 0.0 | 1.7 | 0.11 | 0.20 | 0.20 | 80 | 1011.2 |
| 20260505073923 | 52 | 315 | 0.0 | 1.7 | 0.10 | 0.20 | 0.19 | 79 | 1011.6 |
| 20260505073504 | 52 | 286 | 0.0 | 1.7 | 0.09 | 0.18 | 0.18 | 79 | 1011.5 |
| 20260505073353 | 52 | 285 | 0.0 | 1.7 | 0.07 | 0.17 | 0.17 | 79 | 1011.3 |
| 20260505073003 | 52 | 283 | 0.0 | 1.7 | 0.08 | 0.16 | 0.16 | 78 | 1011.2 |
| 20260505072853 | 52 | 276 | 0.0 | 1.7 | 0.07 | 0.15 | 0.14 | 77 | 1011.5 |
| 20260505072504 | 53 | 272 | 0.9 | 1.7 | 0.06 | 0.14 | 0.14 | 75 | 1011.7 |
| 20260505072323 | 53 | 282 | 0.9 | 2.6 | 0.05 | 0.12 | 0.12 | 73 | 1011.7 |
| 20260505072003 | 53 | 293 | 0.9 | 4.3 | 0.05 | 0.12 | 0.12 | 70 | 1011.6 |
| 20260505071753 | 54 | 305 | 0.0 | 4.3 | 0.05 | 0.11 | 0.11 | 69 | 1010.7 |
| 20260505071503 | 54 | 310 | 0.0 | 4.3 | 0.04 | 0.11 | 0.11 | 68 | 1010.6 |
| 20260505071253 | 54 | 287 | 0.0 | 4.3 | 0.05 | 0.10 | 0.11 | 70 | 1010.2 |
| 20260505071004 | 54 | 297 | 0.0 | 3.5 | 0.05 | 0.11 | 0.11 | 71 | 1010.3 |
| 20260505070753 | 55 | 346 | 0.9 | 5.2 | 0.05 | 0.10 | 0.11 | 70 | 1010.1 |
| 20260505070503 | 55 | 354 | 0.9 | 5.2 | 0.05 | 0.10 | 0.10 | 69 | 1009.9 |
| 20260505070253 | 55 | 3 | 0.9 | 5.2 | 0.05 | 0.10 | 0.10 | 68 | 1009.2 |
| 20260505070004 | 55 | 5 | 0.9 | 5.2 | 0.06 | 0.10 | 0.10 | 68 | 1009.2 |
| 20260505065723 | 55 | 13 | 0.0 | 2.6 | 0.07 | 0.10 | 0.10 | 70 | 1009.4 |
| 20260505065223 | 55 | 26 | 0.0 | 2.6 | 0.07 | 0.09 | 0.09 | 74 | 1009.2 |
| 20260505065003 | 56 | 21 | 0.0 | 3.5 | 0.08 | 0.09 | 0.09 | 76 | 1009.2 |
| 20260505064653 | 56 | 225 | 0.0 | 0.9 | 0.09 | 0.09 | 0.09 | 78 | 1009.9 |
| 20260505064123 | 57 | 239 | 0.0 | 1.7 | 0.09 | 0.09 | 0.09 | 78 | 1009.7 |
| 20260505064003 | 57 | 239 | 0.0 | 1.7 | 0.09 | 0.09 | 0.09 | 78 | 1009.5 |
| 20260505063623 | 57 | 314 | 0.0 | 1.7 | 0.09 | 0.09 | 0.09 | 79 | 1008.7 |
| 20260505063504 | 57 | 314 | 0.0 | 1.7 | 0.09 | 0.09 | 0.09 | 80 | 1008.7 |
| 20260505063053 | 57 | 342 | 0.0 | 1.7 | 0.07 | 0.07 | 0.07 | 80 | 1008.3 |
| 20260505063003 | 57 | 342 | 0.0 | 1.7 | 0.08 | 0.08 | 0.08 | 80 | 1008.3 |
| 20260505062523 | 58 | 344 | 0.0 | 1.7 | 0.07 | 0.07 | 0.07 | 83 | 1008.6 |
| 20260505062503 | 58 | 345 | 0.0 | 1.7 | 0.08 | 0.08 | 0.08 | 83 | 1008.5 |
| 20260505062023 | 58 | 0 | 0.0 | 0.0 | 0.07 | 0.07 | 0.06 | 84 | 1008.7 |
| 20260505062003 | 58 | 0 | 0.0 | 0.0 | 0.07 | 0.07 | 0.07 | 84 | 1008.7 |
| 20260505061523 | 58 | 0 | 0.0 | 0.0 | 0.07 | 0.07 | 0.06 | 83 | 1008.9 |
| 20260505061504 | 58 | 0 | 0.0 | 0.0 | 0.07 | 0.07 | 0.07 | 83 | 1008.9 |
| 20260505061023 | 59 | 0 | 0.0 | 0.0 | 0.05 | 0.05 | 0.05 | 81 | 1008.5 |
| 20260505060523 | 59 | 0 | 0.0 | 0.0 | 0.05 | 0.05 | 0.04 | 78 | 1008.0 |
| 20260505060504 | 59 | 0 | 0.0 | 0.0 | 0.05 | 0.05 | 0.05 | 78 | 1008.1 |
| 20260505060003 | 60 | 31 | 0.0 | 0.9 | 0.04 | 0.04 | 0.04 | 75 | 1007.9 |
| 20260505055953 | 60 | 31 | 0.0 | 0.9 | 0.03 | 0.03 | 0.03 | 74 | 1007.8 |
| 20260505055504 | 61 | 31 | 0.0 | 1.7 | 0.02 | 0.02 | 0.02 | 70 | 1007.5 |
| 20260505055453 | 61 | 31 | 0.0 | 1.7 | 0.01 | 0.01 | 0.02 | 69 | 1007.4 |
| 20260505055003 | 62 | 19 | 0.0 | 3.5 | 0.01 | 0.01 | 0.01 | 66 | 1007.3 |
| 20260505054953 | 62 | 19 | 0.0 | 2.6 | 0.00 | 0.00 | 0.01 | 65 | 1007.3 |
| 20260505054504 | 62 | 9 | 0.9 | 4.3 | 0.00 | 0.00 | 0.00 | 62 | 1007.2 |
| 20260505054453 | 63 | 12 | 0.9 | 4.3 | 0.00 | 0.00 | 0.00 | 61 | 1007.2 |
| 20260505054003 | 63 | 19 | 0.9 | 4.3 | 0.00 | 0.00 | 0.00 | 58 | 1007.2 |
| 20260505053923 | 63 | 21 | 0.9 | 5.2 | 0.00 | 0.00 | 0.00 | 57 | 1007.3 |
| 20260505053503 | 64 | 24 | 1.7 | 5.2 | 0.00 | 0.00 | 0.00 | 57 | 1007.3 |
| 20260505053423 | 64 | 20 | 1.7 | 5.2 | 0.00 | 0.00 | 0.00 | 56 | 1007.3 |
| 20260505053003 | 64 | 12 | 3.5 | 7.0 | 0.00 | 0.00 | 0.00 | 55 | 1007.5 |
| 20260505052923 | 65 | 11 | 2.6 | 6.1 | 0.00 | 0.00 | 0.00 | 55 | 1007.6 |
| 20260505052503 | 66 | 2 | 3.5 | 7.0 | 0.00 | 0.00 | 0.00 | 51 | 1007.4 |
| 20260505052423 | 66 | 352 | 2.6 | 6.1 | 0.00 | 0.00 | 0.00 | 49 | 1007.2 |
| 20260505052003 | 67 | 332 | 3.5 | 9.6 | 0.00 | 0.00 | 0.00 | 47 | 1006.9 |
| 20260505051853 | 67 | 318 | 2.6 | 9.6 | 0.00 | 0.00 | 0.00 | 46 | 1006.9 |
| 20260505051353 | 69 | 319 | 2.6 | 9.6 | 0.00 | 0.00 | 0.00 | 44 | 1006.9 |
| 20260505051003 | 70 | 308 | 3.5 | 7.8 | 0.00 | 0.00 | 0.00 | 42 | 1006.8 |
| 20260505050823 | 70 | 315 | 2.6 | 7.0 | 0.00 | 0.00 | 0.00 | 42 | 1006.7 |
| 20260505050503 | 71 | 315 | 1.7 | 5.2 | 0.00 | 0.00 | 0.00 | 45 | 1006.5 |
| 20260505050253 | 71 | 322 | 1.7 | 5.2 | 0.00 | 0.00 | 0.00 | 46 | 1006.2 |
| 20260505041653 | 71 | 143 | 0.9 | 5.2 | 0.00 | 0.00 | 0.00 | 66 | 1005.4 |
| 20260505041153 | 72 | 148 | 0.9 | 5.2 | 0.00 | 0.00 | 0.00 | 66 | 1005.6 |
| 20260505041003 | 72 | 146 | 0.9 | 4.3 | 0.00 | 0.00 | 0.00 | 66 | 1005.6 |
| 20260505040623 | 72 | 145 | 0.9 | 2.6 | 0.00 | 0.00 | 0.00 | 66 | 1005.7 |
| 20260505040504 | 72 | 144 | 0.9 | 3.5 | 0.00 | 0.00 | 0.00 | 66 | 1005.7 |
| 20260505040123 | 72 | 142 | 0.9 | 2.6 | 0.00 | 0.00 | 0.00 | 66 | 1005.8 |
| 20260505040004 | 72 | 144 | 0.9 | 3.5 | 0.00 | 0.00 | 0.00 | 66 | 1005.8 |
| 20260505035623 | 72 | 147 | 0.9 | 5.2 | 0.00 | 0.00 | 0.00 | 66 | 1005.8 |
| 20260505035504 | 72 | 148 | 0.9 | 5.2 | 0.00 | 0.00 | 0.00 | 66 | 1005.8 |
| 20260505035053 | 72 | 147 | 0.9 | 5.2 | 0.00 | 0.00 | 0.00 | 66 | 1005.8 |
| 20260505035004 | 72 | 147 | 0.9 | 5.2 | 0.00 | 0.00 | 0.00 | 66 | 1005.9 |
| 20260505034523 | 72 | 145 | 0.9 | 5.2 | 0.00 | 0.00 | 0.00 | 65 | 1005.9 |
| 20260505034503 | 72 | 145 | 0.9 | 5.2 | 0.00 | 0.00 | 0.00 | 65 | 1005.8 |
| 20260505034023 | 72 | 144 | 0.9 | 6.1 | 0.00 | 0.00 | 0.00 | 65 | 1005.8 |
| 20260505034004 | 72 | 144 | 0.9 | 7.0 | 0.00 | 0.00 | 0.00 | 65 | 1005.8 |
| 20260505033503 | 72 | 145 | 0.0 | 7.0 | 0.00 | 0.00 | 0.00 | 65 | 1005.9 |
| 20260505033453 | 72 | 149 | 0.0 | 2.6 | 0.00 | 0.00 | 0.00 | 65 | 1005.9 |
| 20260505032923 | 72 | 145 | 0.0 | 2.6 | 0.00 | 0.00 | 0.00 | 65 | 1005.9 |
| 20260505032504 | 72 | 144 | 0.9 | 4.3 | 0.00 | 0.00 | 0.00 | 64 | 1005.8 |
| 20260505032423 | 72 | 143 | 0.9 | 4.3 | 0.00 | 0.00 | 0.00 | 64 | 1005.8 |
| 20260505032003 | 72 | 140 | 0.9 | 4.3 | 0.00 | 0.00 | 0.00 | 63 | 1005.7 |
| 20260505031853 | 73 | 140 | 0.9 | 4.3 | 0.00 | 0.00 | 0.00 | 63 | 1005.7 |
| 20260505031503 | 73 | 141 | 0.9 | 4.3 | 0.00 | 0.00 | 0.00 | 63 | 1005.7 |
| 20260505031353 | 73 | 144 | 0.0 | 4.3 | 0.00 | 0.00 | 0.00 | 63 | 1005.7 |
| 20260505031004 | 73 | 146 | 0.0 | 4.3 | 0.00 | 0.00 | 0.00 | 63 | 1005.7 |
| 20260505030823 | 73 | 147 | 0.0 | 4.3 | 0.00 | 0.00 | 0.00 | 62 | 1005.6 |
| 20260505030503 | 73 | 146 | 0.0 | 1.7 | 0.00 | 0.00 | 0.00 | 62 | 1005.6 |
| 20260505030323 | 73 | 146 | 0.0 | 1.7 | 0.00 | 0.00 | 0.00 | 62 | 1005.6 |
| 20260505030003 | 73 | 142 | 0.0 | 0.9 | 0.00 | 0.00 | 0.00 | 61 | 1005.6 |
| 20260505025753 | 73 | 142 | 0.0 | 0.9 | 0.00 | 0.00 | 0.00 | 61 | 1005.6 |
| 20260505025504 | 73 | 0 | 0.0 | 0.0 | 0.00 | 0.00 | 0.00 | 61 | 1005.6 |
| 20260505025253 | 73 | 0 | 0.0 | 0.0 | 0.00 | 0.00 | 0.00 | 60 | 1005.6 |
| 20260505025004 | 73 | 142 | 0.0 | 0.9 | 0.00 | 0.00 | 0.00 | 60 | 1005.5 |
| 20260505024753 | 73 | 139 | 0.0 | 1.7 | 0.00 | 0.00 | 0.00 | 59 | 1005.5 |
| 20260505024503 | 74 | 139 | 0.0 | 1.7 | 0.00 | 0.00 | 0.00 | 59 | 1005.4 |
| 20260505024223 | 74 | 139 | 0.0 | 1.7 | 0.00 | 0.00 | 0.00 | 59 | 1005.4 |
| 20260505024004 | 74 | 139 | 0.0 | 1.7 | 0.00 | 0.00 | 0.00 | 59 | 1005.4 |
| 20260505023723 | 74 | 139 | 0.0 | 1.7 | 0.00 | 0.00 | 0.00 | 58 | 1005.4 |
| 20260505023153 | 74 | 0 | 0.0 | 0.0 | 0.00 | 0.00 | 0.00 | 58 | 1005.2 |
| 20260505023003 | 74 | 0 | 0.0 | 0.0 | 0.00 | 0.00 | 0.00 | 58 | 1005.2 |
| 20260505022623 | 74 | 0 | 0.0 | 0.0 | 0.00 | 0.00 | 0.00 | 57 | 1005.1 |
| 20260505022504 | 74 | 0 | 0.0 | 0.0 | 0.00 | 0.00 | 0.00 | 57 | 1005.1 |
| 20260505022123 | 74 | 0 | 0.0 | 0.0 | 0.00 | 0.00 | 0.00 | 57 | 1005.0 |
| 20260505022003 | 74 | 0 | 0.0 | 0.0 | 0.00 | 0.00 | 0.00 | 56 | 1005.0 |
| 20260505021553 | 74 | 0 | 0.0 | 0.0 | 0.00 | 0.00 | 0.00 | 56 | 1004.9 |
| 20260505021503 | 74 | 0 | 0.0 | 0.0 | 0.00 | 0.00 | 0.00 | 56 | 1004.9 |
| 20260505021053 | 74 | 0 | 0.0 | 0.0 | 0.00 | 0.00 | 0.00 | 55 | 1004.9 |
| 20260505021004 | 74 | 0 | 0.0 | 0.0 | 0.00 | 0.00 | 0.00 | 55 | 1004.9 |
| 20260505020523 | 74 | 0 | 0.0 | 0.0 | 0.00 | 0.00 | 0.00 | 55 | 1004.8 |
| 20260505020503 | 74 | 0 | 0.0 | 0.0 | 0.00 | 0.00 | 0.00 | 55 | 1004.9 |
| 20260505020004 | 74 | 0 | 0.0 | 0.0 | 0.00 | 0.00 | 0.00 | 54 | 1004.8 |
| 20260505015953 | 74 | 0 | 0.0 | 0.0 | 0.00 | 0.00 | 0.00 | 54 | 1004.8 |
| 20260505015503 | 74 | 0 | 0.0 | 0.0 | 0.00 | 0.00 | 0.00 | 54 | 1004.7 |
| 20260505015423 | 74 | 0 | 0.0 | 0.0 | 0.00 | 0.00 | 0.00 | 54 | 1004.7 |
| 20260505014853 | 74 | 0 | 0.0 | 0.0 | 0.00 | 0.00 | 0.00 | 54 | 1004.6 |
| 20260505014504 | 74 | 0 | 0.0 | 0.0 | 0.00 | 0.00 | 0.00 | 54 | 1004.6 |
| 20260505014353 | 73 | 0 | 0.0 | 0.0 | 0.00 | 0.00 | 0.00 | 54 | 1004.6 |
| 20260505014003 | 73 | 0 | 0.0 | 0.0 | 0.00 | 0.00 | 0.00 | 55 | 1004.5 |
| 20260505013823 | 73 | 0 | 0.0 | 0.0 | 0.00 | 0.00 | 0.00 | 56 | 1004.5 |
| 20260505013503 | 74 | 0 | 0.0 | 0.0 | 0.00 | 0.00 | 0.00 | 55 | 1004.5 |
| 20260505013253 | 74 | 0 | 0.0 | 0.0 | 0.00 | 0.00 | 0.00 | 56 | 1004.4 |
| 20260505013004 | 74 | 0 | 0.0 | 0.0 | 0.00 | 0.00 | 0.00 | 54 | 1004.5 |
| 20260505012753 | 74 | 0 | 0.0 | 0.0 | 0.00 | 0.00 | 0.00 | 53 | 1004.4 |
| 20260505012503 | 74 | 0 | 0.0 | 0.0 | 0.00 | 0.00 | 0.00 | 53 | 1004.4 |
| 20260505012253 | 75 | 0 | 0.0 | 0.0 | 0.00 | 0.00 | 0.00 | 53 | 1004.3 |
| 20260505012003 | 75 | 0 | 0.0 | 0.0 | 0.00 | 0.00 | 0.00 | 53 | 1004.3 |
| 20260505011753 | 75 | 0 | 0.0 | 0.0 | 0.00 | 0.00 | 0.00 | 52 | 1004.2 |
| 20260505011504 | 75 | 0 | 0.0 | 0.0 | 0.00 | 0.00 | 0.00 | 52 | 1004.2 |
| 20260505011253 | 75 | 0 | 0.0 | 0.0 | 0.00 | 0.00 | 0.00 | 52 | 1004.2 |
| 20260505011003 | 75 | 0 | 0.0 | 0.0 | 0.00 | 0.00 | 0.00 | 52 | 1004.1 |
| 20260505010753 | 76 | 0 | 0.0 | 0.0 | 0.00 | 0.00 | 0.00 | 51 | 1004.0 |
| 20260505010503 | 76 | 0 | 0.0 | 0.0 | 0.00 | 0.00 | 0.00 | 51 | 1004.0 |
| 20260505010223 | 76 | 0 | 0.0 | 0.0 | 0.00 | 0.00 | 0.00 | 51 | 1003.9 |
| 20260505010004 | 76 | 0 | 0.0 | 0.0 | 0.00 | 0.00 | 0.00 | 50 | 1003.9 |
| 20260505005653 | 77 | 0 | 0.0 | 0.0 | 0.00 | 0.00 | 0.00 | 50 | 1004.0 |
| 20260505005503 | 77 | 0 | 0.0 | 0.0 | 0.00 | 0.00 | 0.00 | 49 | 1004.0 |
| 20260505005153 | 77 | 0 | 0.0 | 0.0 | 0.00 | 0.00 | 0.00 | 48 | 1003.8 |
| 20260505005004 | 77 | 0 | 0.0 | 0.0 | 0.00 | 0.00 | 0.00 | 48 | 1003.8 |
| 20260505004623 | 78 | 0 | 0.0 | 0.0 | 0.00 | 0.00 | 0.00 | 47 | 1003.8 |
| 20260505004504 | 78 | 0 | 0.0 | 0.0 | 0.00 | 0.00 | 0.00 | 47 | 1003.8 |
| 20260505004053 | 78 | 0 | 0.0 | 0.0 | 0.00 | 0.00 | 0.00 | 47 | 1003.7 |
| 20260505004003 | 78 | 0 | 0.0 | 0.0 | 0.00 | 0.00 | 0.00 | 47 | 1003.8 |
| 20260505003523 | 79 | 0 | 0.0 | 0.0 | 0.00 | 0.00 | 0.00 | 46 | 1003.7 |
| 20260505003503 | 79 | 0 | 0.0 | 0.0 | 0.00 | 0.00 | 0.00 | 46 | 1003.7 |
| 20260505003023 | 79 | 0 | 0.0 | 0.0 | 0.00 | 0.00 | 0.00 | 47 | 1003.7 |
| 20260505003004 | 79 | 0 | 0.0 | 0.0 | 0.00 | 0.00 | 0.00 | 47 | 1003.6 |
| 20260505002523 | 79 | 0 | 0.0 | 0.0 | 0.00 | 0.00 | 0.00 | 47 | 1003.6 |
| 20260505002503 | 79 | 0 | 0.0 | 0.0 | 0.00 | 0.00 | 0.00 | 47 | 1003.6 |
| 20260505002003 | 79 | 0 | 0.0 | 0.0 | 0.00 | 0.00 | 0.00 | 46 | 1003.6 |
| 20260505001953 | 79 | 0 | 0.0 | 0.0 | 0.00 | 0.00 | 0.00 | 46 | 1003.6 |
| 20260505001504 | 79 | 0 | 0.0 | 0.0 | 0.00 | 0.00 | 0.00 | 46 | 1003.6 |
| 20260505001423 | 79 | 0 | 0.0 | 0.0 | 0.00 | 0.00 | 0.00 | 46 | 1003.7 |
| 20260505000853 | 79 | 144 | 0.0 | 0.9 | 0.00 | 0.00 | 0.00 | 45 | 1003.6 |
| 20260505000352 | 80 | 144 | 0.0 | 0.9 | 0.00 | 0.00 | 0.00 | 45 | 1003.7 |
| 20260505000004 | 80 | 197 | 0.0 | 0.9 | 0.00 | 0.00 | 0.00 | 45 | 1003.7 |
| 20260504235823 | 80 | 250 | 0.0 | 0.9 | 0.00 | 0.00 | 0.00 | 45 | 1003.7 |
| 20260504235503 | 80 | 250 | 0.0 | 0.9 | 0.00 | 0.00 | 0.00 | 45 | 1003.8 |
| 20260504235323 | 80 | 243 | 0.0 | 0.9 | 0.00 | 0.00 | 0.00 | 44 | 1003.7 |
| 20260504235003 | 80 | 243 | 0.0 | 0.9 | 0.00 | 0.00 | 0.00 | 44 | 1003.7 |
| 20260504234822 | 80 | 240 | 0.0 | 0.9 | 0.00 | 0.00 | 0.00 | 45 | 1003.7 |
| 20260504234253 | 80 | 253 | 0.0 | 1.7 | 0.00 | 0.00 | 0.00 | 44 | 1003.7 |
| 20260504234003 | 80 | 248 | 0.0 | 1.7 | 0.00 | 0.00 | 0.00 | 44 | 1003.7 |
| 20260504233722 | 80 | 240 | 0.0 | 1.7 | 0.00 | 0.00 | 0.00 | 44 | 1003.7 |
| 20260504233503 | 81 | 243 | 0.0 | 1.7 | 0.00 | 0.00 | 0.00 | 44 | 1003.7 |
| 20260504233222 | 81 | 244 | 0.0 | 1.7 | 0.00 | 0.00 | 0.00 | 44 | 1003.7 |
| 20260504232653 | 81 | 236 | 0.0 | 2.6 | 0.00 | 0.00 | 0.00 | 43 | 1003.8 |
| 20260504232503 | 81 | 228 | 0.0 | 3.5 | 0.00 | 0.00 | 0.00 | 44 | 1003.8 |
| 20260504232153 | 81 | 155 | 0.0 | 2.6 | 0.00 | 0.00 | 0.00 | 43 | 1003.7 |
| 20260504232004 | 81 | 145 | 0.0 | 3.5 | 0.00 | 0.00 | 0.00 | 43 | 1003.7 |
| 20260504231623 | 81 | 183 | 0.0 | 1.7 | 0.00 | 0.00 | 0.00 | 42 | 1003.8 |
| 20260504231052 | 82 | 219 | 0.9 | 2.6 | 0.00 | 0.00 | 0.00 | 42 | 1003.7 |
| 20260504231003 | 82 | 219 | 0.9 | 3.5 | 0.00 | 0.00 | 0.00 | 42 | 1003.7 |
| 20260504230522 | 82 | 223 | 0.9 | 2.6 | 0.00 | 0.00 | 0.00 | 42 | 1003.8 |
| 20260504230504 | 82 | 223 | 0.9 | 3.5 | 0.00 | 0.00 | 0.00 | 42 | 1003.8 |
| 20260504225952 | 82 | 244 | 0.0 | 1.7 | 0.00 | 0.00 | 0.00 | 42 | 1003.7 |
| 20260504225453 | 82 | 165 | 0.0 | 4.3 | 0.00 | 0.00 | 0.00 | 43 | 1003.7 |
| 20260504224952 | 82 | 138 | 0.0 | 4.3 | 0.00 | 0.00 | 0.00 | 45 | 1003.7 |
| 20260504224504 | 82 | 140 | 0.9 | 7.8 | 0.00 | 0.00 | 0.00 | 42 | 1003.7 |
| 20260504224422 | 82 | 144 | 0.9 | 7.0 | 0.00 | 0.00 | 0.00 | 42 | 1003.7 |
| 20260504224003 | 82 | 156 | 0.9 | 7.8 | 0.00 | 0.00 | 0.00 | 43 | 1003.7 |
| 20260504223922 | 82 | 160 | 0.9 | 7.0 | 0.00 | 0.00 | 0.00 | 42 | 1003.7 |
| 20260504223504 | 82 | 223 | 0.9 | 3.5 | 0.00 | 0.00 | 0.00 | 42 | 1003.7 |
| 20260504223352 | 82 | 242 | 0.9 | 2.6 | 0.00 | 0.00 | 0.00 | 42 | 1003.7 |
| 20260504223003 | 82 | 225 | 0.9 | 4.3 | 0.00 | 0.00 | 0.00 | 42 | 1003.8 |
| 20260504222852 | 81 | 177 | 0.9 | 5.2 | 0.00 | 0.00 | 0.00 | 43 | 1003.7 |
| 20260504222503 | 81 | 150 | 0.9 | 5.2 | 0.00 | 0.00 | 0.00 | 43 | 1003.8 |
| 20260504222352 | 81 | 148 | 0.9 | 5.2 | 0.00 | 0.00 | 0.00 | 44 | 1003.7 |
| 20260504222004 | 81 | 146 | 0.9 | 5.2 | 0.00 | 0.00 | 0.00 | 43 | 1003.7 |
| 20260504221822 | 81 | 169 | 0.0 | 4.3 | 0.00 | 0.00 | 0.00 | 43 | 1003.8 |
| 20260504221503 | 81 | 198 | 0.0 | 4.3 | 0.00 | 0.00 | 0.00 | 43 | 1003.8 |
| 20260504221322 | 80 | 176 | 0.0 | 4.3 | 0.00 | 0.00 | 0.00 | 43 | 1003.8 |
| 20260504220822 | 80 | 168 | 0.0 | 4.3 | 0.00 | 0.00 | 0.00 | 44 | 1003.9 |
| 20260504220503 | 80 | 187 | 0.0 | 4.3 | 0.00 | 0.00 | 0.00 | 44 | 1004.0 |
| 20260504220322 | 80 | 194 | 0.0 | 4.3 | 0.00 | 0.00 | 0.00 | 43 | 1003.9 |
| 20260504220003 | 80 | 214 | 0.0 | 4.3 | 0.00 | 0.00 | 0.00 | 43 | 1003.9 |
| 20260504215752 | 80 | 240 | 0.0 | 2.6 | 0.00 | 0.00 | 0.00 | 44 | 1004.0 |
| 20260504215503 | 80 | 243 | 0.0 | 3.5 | 0.00 | 0.00 | 0.00 | 44 | 1004.0 |
| 20260504215222 | 80 | 203 | 0.0 | 2.6 | 0.00 | 0.00 | 0.00 | 44 | 1004.1 |
| 20260504215003 | 80 | 206 | 0.9 | 3.5 | 0.00 | 0.00 | 0.00 | 43 | 1004.1 |
| 20260504214722 | 80 | 225 | 0.0 | 2.6 | 0.00 | 0.00 | 0.00 | 43 | 1004.2 |
| 20260504214504 | 80 | 229 | 0.9 | 3.5 | 0.00 | 0.00 | 0.00 | 43 | 1004.2 |
| 20260504214152 | 80 | 194 | 0.9 | 4.3 | 0.00 | 0.00 | 0.00 | 45 | 1004.1 |
| 20260504214003 | 80 | 191 | 0.0 | 4.3 | 0.00 | 0.00 | 0.00 | 42 | 1004.1 |
| 20260504213652 | 81 | 138 | 0.9 | 4.3 | 0.00 | 0.00 | 0.00 | 41 | 1004.2 |
| 20260504213122 | 81 | 153 | 0.9 | 4.3 | 0.00 | 0.00 | 0.00 | 41 | 1004.2 |
| 20260504213004 | 81 | 148 | 0.9 | 4.3 | 0.00 | 0.00 | 0.00 | 40 | 1004.2 |
| 20260504212552 | 80 | 155 | 0.9 | 5.2 | 0.00 | 0.00 | 0.00 | 42 | 1004.3 |
| 20260504212503 | 80 | 155 | 0.9 | 5.2 | 0.00 | 0.00 | 0.00 | 42 | 1004.2 |
| 20260504212052 | 80 | 141 | 0.9 | 5.2 | 0.00 | 0.00 | 0.00 | 43 | 1004.3 |
| 20260504212004 | 80 | 141 | 0.9 | 5.2 | 0.00 | 0.00 | 0.00 | 43 | 1004.4 |
| 20260504211552 | 80 | 205 | 0.9 | 4.3 | 0.00 | 0.00 | 0.00 | 43 | 1004.2 |
| 20260504211504 | 80 | 205 | 0.9 | 4.3 | 0.00 | 0.00 | 0.00 | 43 | 1004.3 |
| 20260504211022 | 80 | 239 | 0.9 | 4.3 | 0.00 | 0.00 | 0.00 | 41 | 1004.3 |
| 20260504211003 | 80 | 239 | 0.9 | 4.3 | 0.00 | 0.00 | 0.00 | 41 | 1004.3 |
| 20260504210522 | 81 | 150 | 0.9 | 7.0 | 0.00 | 0.00 | 0.00 | 42 | 1004.3 |
| 20260504210504 | 81 | 150 | 0.9 | 7.8 | 0.00 | 0.00 | 0.00 | 42 | 1004.3 |
| 20260504210004 | 81 | 225 | 0.9 | 7.8 | 0.00 | 0.00 | 0.00 | 41 | 1004.3 |
| 20260504205952 | 81 | 246 | 0.9 | 7.0 | 0.00 | 0.00 | 0.00 | 42 | 1004.3 |
| 20260504205504 | 81 | 247 | 1.7 | 7.8 | 0.00 | 0.00 | 0.00 | 42 | 1004.4 |
| 20260504205422 | 82 | 242 | 1.7 | 7.0 | 0.00 | 0.00 | 0.00 | 40 | 1004.4 |
| 20260504205003 | 82 | 203 | 1.7 | 7.8 | 0.00 | 0.00 | 0.00 | 40 | 1004.4 |
| 20260504204922 | 82 | 191 | 1.7 | 7.0 | 0.00 | 0.00 | 0.00 | 39 | 1004.5 |
| 20260504204503 | 82 | 163 | 0.9 | 7.8 | 0.00 | 0.00 | 0.00 | 40 | 1004.6 |
| 20260504204422 | 82 | 172 | 0.9 | 7.0 | 0.00 | 0.00 | 0.00 | 38 | 1004.6 |
| 20260504204004 | 82 | 162 | 0.9 | 4.3 | 0.00 | 0.00 | 0.00 | 40 | 1004.5 |
| 20260504203852 | 83 | 150 | 0.9 | 4.3 | 0.00 | 0.00 | 0.00 | 40 | 1004.6 |
| 20260504203503 | 83 | 156 | 0.9 | 5.2 | 0.00 | 0.00 | 0.00 | 39 | 1004.5 |
| 20260504203352 | 83 | 183 | 0.9 | 5.2 | 0.00 | 0.00 | 0.00 | 40 | 1004.6 |
| 20260504202852 | 83 | 210 | 0.9 | 6.1 | 0.00 | 0.00 | 0.00 | 39 | 1004.6 |
| 20260504202504 | 83 | 184 | 0.9 | 7.0 | 0.00 | 0.00 | 0.00 | 40 | 1004.6 |
| 20260504202322 | 84 | 153 | 0.9 | 6.1 | 0.00 | 0.00 | 0.00 | 39 | 1004.5 |
| 20260504202003 | 84 | 149 | 0.9 | 5.2 | 0.00 | 0.00 | 0.00 | 39 | 1004.5 |
| 20260504201822 | 83 | 150 | 0.9 | 5.2 | 0.00 | 0.00 | 0.00 | 38 | 1004.6 |
| 20260504201504 | 83 | 155 | 0.9 | 5.2 | 0.00 | 0.00 | 0.00 | 40 | 1004.6 |
| 20260504201322 | 83 | 150 | 0.9 | 5.2 | 0.00 | 0.00 | 0.00 | 38 | 1004.6 |
| 20260504200822 | 83 | 143 | 1.7 | 8.7 | 0.00 | 0.00 | 0.00 | 38 | 1004.7 |
| 20260504200503 | 83 | 138 | 1.7 | 8.7 | 0.00 | 0.00 | 0.00 | 38 | 1004.7 |
| 20260504200322 | 83 | 138 | 1.7 | 8.7 | 0.00 | 0.00 | 0.00 | 38 | 1004.7 |
| 20260504200004 | 83 | 147 | 1.7 | 7.0 | 0.00 | 0.00 | 0.00 | 40 | 1004.7 |
| 20260504195822 | 83 | 155 | 1.7 | 6.1 | 0.00 | 0.00 | 0.00 | 40 | 1004.8 |
| 20260504195503 | 83 | 171 | 0.9 | 7.0 | 0.00 | 0.00 | 0.00 | 39 | 1004.7 |
| 20260504195252 | 84 | 176 | 0.9 | 6.1 | 0.00 | 0.00 | 0.00 | 39 | 1004.7 |
| 20260504194752 | 84 | 146 | 0.9 | 5.2 | 0.00 | 0.00 | 0.00 | 43 | 1004.7 |
| 20260504194503 | 83 | 150 | 0.9 | 5.2 | 0.00 | 0.00 | 0.00 | 42 | 1004.7 |
| 20260504194223 | 83 | 168 | 1.7 | 5.2 | 0.00 | 0.00 | 0.00 | 43 | 1004.8 |
| 20260504194003 | 83 | 168 | 1.7 | 5.2 | 0.00 | 0.00 | 0.00 | 40 | 1004.7 |
| 20260504193722 | 83 | 200 | 0.9 | 5.2 | 0.00 | 0.00 | 0.00 | 43 | 1004.7 |
| 20260504193503 | 83 | 191 | 0.9 | 5.2 | 0.00 | 0.00 | 0.00 | 41 | 1004.8 |
| 20260504193222 | 83 | 141 | 0.9 | 6.1 | 0.00 | 0.00 | 0.00 | 41 | 1004.8 |
| 20260504193004 | 83 | 140 | 0.9 | 7.0 | 0.00 | 0.00 | 0.00 | 41 | 1004.8 |
| 20260504192652 | 83 | 146 | 0.9 | 6.1 | 0.00 | 0.00 | 0.00 | 42 | 1004.8 |
| 20260504192503 | 83 | 146 | 1.7 | 7.0 | 0.00 | 0.00 | 0.00 | 41 | 1004.8 |
| 20260504192152 | 83 | 170 | 0.9 | 5.2 | 0.00 | 0.00 | 0.00 | 40 | 1004.8 |
| 20260504192003 | 83 | 179 | 0.9 | 5.2 | 0.00 | 0.00 | 0.00 | 41 | 1004.8 |
| 20260504191622 | 82 | 171 | 0.9 | 7.0 | 0.00 | 0.00 | 0.00 | 40 | 1004.7 |
| 20260504191504 | 82 | 167 | 0.9 | 7.8 | 0.00 | 0.00 | 0.00 | 41 | 1004.7 |
| 20260504191052 | 82 | 224 | 1.7 | 7.0 | 0.00 | 0.00 | 0.00 | 39 | 1004.8 |
| 20260504191003 | 82 | 224 | 1.7 | 7.8 | 0.00 | 0.00 | 0.00 | 39 | 1004.7 |
| 20260504190552 | 82 | 255 | 0.9 | 7.0 | 0.00 | 0.00 | 0.00 | 40 | 1004.8 |
| 20260504190504 | 82 | 255 | 0.9 | 7.8 | 0.00 | 0.00 | 0.00 | 40 | 1004.8 |
| 20260504190052 | 82 | 217 | 0.9 | 5.2 | 0.00 | 0.00 | 0.00 | 41 | 1005.0 |
| 20260504185552 | 81 | 250 | 0.9 | 5.2 | 0.00 | 0.00 | 0.00 | 45 | 1004.9 |
| 20260504185504 | 81 | 250 | 0.9 | 5.2 | 0.00 | 0.00 | 0.00 | 45 | 1005.0 |
| 20260504185052 | 81 | 246 | 1.7 | 6.1 | 0.00 | 0.00 | 0.00 | 44 | 1005.0 |
| 20260504185003 | 81 | 246 | 1.7 | 7.0 | 0.00 | 0.00 | 0.00 | 44 | 1005.0 |
| 20260504184522 | 81 | 148 | 1.7 | 7.0 | 0.00 | 0.00 | 0.00 | 44 | 1004.9 |
| 20260504184503 | 81 | 148 | 1.7 | 7.8 | 0.00 | 0.00 | 0.00 | 44 | 1005.0 |
| 20260504184022 | 81 | 133 | 1.7 | 7.0 | 0.00 | 0.00 | 0.00 | 40 | 1005.0 |
| 20260504184004 | 81 | 133 | 1.7 | 7.8 | 0.00 | 0.00 | 0.00 | 40 | 1005.0 |
| 20260504183522 | 81 | 149 | 1.7 | 7.0 | 0.00 | 0.00 | 0.00 | 40 | 1005.1 |
| 20260504183503 | 81 | 148 | 1.7 | 7.8 | 0.00 | 0.00 | 0.00 | 40 | 1005.1 |
| 20260504183004 | 80 | 223 | 0.9 | 7.0 | 0.00 | 0.00 | 0.00 | 42 | 1005.1 |
| 20260504182952 | 80 | 227 | 1.7 | 6.1 | 0.00 | 0.00 | 0.00 | 41 | 1005.1 |
| 20260504182503 | 80 | 177 | 1.7 | 7.8 | 0.00 | 0.00 | 0.00 | 42 | 1005.1 |
| 20260504182452 | 80 | 162 | 1.7 | 7.0 | 0.00 | 0.00 | 0.00 | 43 | 1005.2 |
| 20260504182003 | 80 | 176 | 1.7 | 7.8 | 0.00 | 0.00 | 0.00 | 42 | 1005.2 |
| 20260504181952 | 80 | 183 | 1.7 | 7.0 | 0.00 | 0.00 | 0.00 | 42 | 1005.2 |
| 20260504181422 | 79 | 241 | 1.7 | 5.2 | 0.00 | 0.00 | 0.00 | 42 | 1005.2 |
| 20260504181003 | 80 | 163 | 0.9 | 7.8 | 0.00 | 0.00 | 0.00 | 42 | 1005.2 |
| 20260504180852 | 80 | 148 | 0.9 | 7.0 | 0.00 | 0.00 | 0.00 | 41 | 1005.3 |
| 20260504180503 | 80 | 153 | 0.9 | 7.8 | 0.00 | 0.00 | 0.00 | 47 | 1005.3 |
| 20260504180352 | 80 | 185 | 1.7 | 7.0 | 0.00 | 0.00 | 0.00 | 41 | 1005.3 |
| 20260504180004 | 79 | 238 | 0.9 | 4.3 | 0.00 | 0.00 | 0.00 | 43 | 1005.4 |
| 20260504175822 | 79 | 249 | 0.9 | 4.3 | 0.00 | 0.00 | 0.00 | 46 | 1005.4 |
| 20260504175503 | 79 | 192 | 1.7 | 7.8 | 0.00 | 0.00 | 0.00 | 43 | 1005.4 |
| 20260504175252 | 79 | 156 | 1.7 | 8.7 | 0.00 | 0.00 | 0.00 | 44 | 1005.5 |
| 20260504175003 | 79 | 146 | 1.7 | 8.7 | 0.00 | 0.00 | 0.00 | 44 | 1005.5 |
| 20260504174723 | 79 | 140 | 1.7 | 8.7 | 0.00 | 0.00 | 0.00 | 40 | 1005.4 |
| 20260504174503 | 79 | 141 | 1.7 | 8.7 | 0.00 | 0.00 | 0.00 | 41 | 1005.5 |
| 20260504174152 | 79 | 144 | 0.9 | 6.1 | 0.00 | 0.00 | 0.00 | 44 | 1005.5 |
| 20260504174004 | 79 | 142 | 0.9 | 7.0 | 0.00 | 0.00 | 0.00 | 42 | 1005.5 |
| 20260504173622 | 79 | 181 | 0.9 | 5.2 | 0.00 | 0.00 | 0.00 | 42 | 1005.6 |
| 20260504173052 | 78 | 248 | 0.9 | 6.1 | 0.00 | 0.00 | 0.00 | 44 | 1005.6 |
| 20260504173004 | 78 | 248 | 0.9 | 7.0 | 0.00 | 0.00 | 0.00 | 44 | 1005.6 |
| 20260504172552 | 78 | 250 | 0.9 | 6.1 | 0.00 | 0.00 | 0.00 | 46 | 1005.7 |
| 20260504172504 | 78 | 250 | 0.9 | 7.0 | 0.00 | 0.00 | 0.00 | 46 | 1005.6 |
| 20260504172052 | 78 | 183 | 1.7 | 6.1 | 0.00 | 0.00 | 0.00 | 45 | 1005.6 |
| 20260504172004 | 78 | 183 | 1.7 | 7.0 | 0.00 | 0.00 | 0.00 | 45 | 1005.7 |
| 20260504171552 | 78 | 135 | 2.6 | 13.0 | 0.00 | 0.00 | 0.00 | 43 | 1005.7 |
| 20260504171503 | 78 | 135 | 3.5 | 13.0 | 0.00 | 0.00 | 0.00 | 43 | 1005.7 |
| 20260504171022 | 77 | 134 | 2.6 | 13.0 | 0.00 | 0.00 | 0.00 | 42 | 1005.6 |
| 20260504171003 | 77 | 134 | 3.5 | 13.0 | 0.00 | 0.00 | 0.00 | 42 | 1005.6 |
| 20260504170522 | 78 | 166 | 1.7 | 6.1 | 0.00 | 0.00 | 0.00 | 41 | 1005.7 |
| 20260504160222 | 75 | 242 | 0.9 | 8.7 | 0.00 | 0.00 | 0.00 | 44 | 1005.7 |
| 20260504151003 | 71 | 149 | 0.9 | 7.8 | 0.00 | 0.00 | 0.00 | 48 | 1005.9 |
| 20260504150852 | 71 | 154 | 0.9 | 7.0 | 0.00 | 0.00 | 0.00 | 49 | 1005.9 |
| 20260504150504 | 71 | 178 | 0.9 | 7.8 | 0.00 | 0.00 | 0.00 | 50 | 1005.9 |
| 20260504150352 | 71 | 214 | 0.9 | 4.3 | 0.00 | 0.00 | 0.00 | 51 | 1005.8 |
| 20260504141052 | 69 | 144 | 0.9 | 4.3 | 0.00 | 0.00 | 0.00 | 52 | 1005.9 |
| 20260504141003 | 69 | 144 | 0.9 | 4.3 | 0.00 | 0.00 | 0.00 | 52 | 1006.1 |
| 20260504140522 | 68 | 140 | 0.9 | 5.2 | 0.00 | 0.00 | 0.00 | 53 | 1005.9 |
| 20260504140504 | 68 | 140 | 0.9 | 5.2 | 0.00 | 0.00 | 0.00 | 53 | 1005.9 |
| 20260504130822 | 66 | 153 | 0.9 | 7.0 | 0.00 | 0.00 | 0.00 | 53 | 1005.7 |
| 20260504130322 | 66 | 156 | 0.9 | 9.6 | 0.00 | 0.00 | 0.00 | 53 | 1005.7 |
| 20260504110503 | 64 | 156 | 0.0 | 0.9 | 0.00 | 0.00 | 0.00 | 53 | 1006.1 |
| 20260504110252 | 64 | 133 | 0.0 | 0.9 | 0.00 | 0.00 | 0.00 | 53 | 1006.2 |
| 20260504100503 | 66 | 164 | 0.0 | 3.5 | 0.00 | 0.00 | 0.00 | 49 | 1006.1 |
| 20260504100452 | 66 | 155 | 0.0 | 2.6 | 0.00 | 0.00 | 0.00 | 49 | 1006.0 |